createdAt,value
2022-09-24T00:03:45.799Z,12.53
2022-09-24T00:09:48.788Z,12.95
2022-09-24T00:15:51.915Z,12.90
2022-09-24T00:21:54.174Z,12.13
2022-09-24T00:27:56.325Z,13.63
2022-09-24T00:33:59.009Z,13.07
2022-09-24T00:40:01.493Z,11.77
2022-09-24T00:46:20.991Z,9.57
2022-09-24T00:52:23.442Z,7.63
2022-09-24T00:58:27.105Z,4.93
2022-09-24T01:04:29.511Z,5.72
2022-09-24T01:11:09.962Z,5.88
2022-09-24T01:23:54.607Z,4.60
2022-09-24T01:30:04.883Z,4.00
2022-09-24T01:36:09.824Z,4.15
2022-09-24T01:42:14.125Z,3.90
2022-09-24T01:48:21.389Z,4.47
2022-09-24T01:54:28.769Z,3.72
2022-09-24T02:00:31.125Z,3.75
2022-09-24T02:07:02.724Z,4.30
2022-09-24T02:13:10.891Z,3.92
2022-09-24T02:19:17.783Z,4.70
2022-09-24T02:25:24.919Z,4.63
2022-09-24T02:31:41.107Z,4.50
2022-09-24T02:37:44.844Z,5.20
2022-09-24T02:43:47.805Z,4.25
2022-09-24T02:49:50.054Z,5.05
2022-09-24T02:55:52.494Z,3.22
2022-09-24T03:01:54.964Z,4.50
2022-09-24T03:07:59.392Z,4.20
2022-09-24T03:14:02.528Z,4.05
2022-09-24T03:20:05.384Z,4.68
2022-09-24T03:32:10.231Z,5.47
2022-09-24T03:38:12.365Z,5.13
2022-09-24T03:44:14.665Z,5.30
2022-09-24T03:50:17.574Z,5.25
2022-09-24T04:02:22.145Z,4.93
2022-09-24T04:08:24.627Z,4.80
2022-09-24T04:14:26.786Z,6.32
2022-09-24T04:20:29.969Z,5.63
2022-09-24T04:26:32.198Z,5.80
2022-09-24T04:32:34.438Z,5.05
2022-09-24T04:38:36.852Z,6.40
2022-09-24T04:44:39.233Z,6.30
2022-09-24T04:50:45.771Z,6.80
2022-09-24T04:56:49.251Z,6.20
2022-09-24T05:02:59.498Z,5.57
2022-09-24T05:09:01.921Z,5.18
2022-09-24T05:15:04.782Z,5.43
2022-09-24T05:21:07.283Z,5.55
2022-09-24T05:33:12.327Z,5.22
2022-09-24T05:39:14.444Z,4.80
2022-09-24T05:45:20.003Z,5.25
2022-09-24T05:51:22.524Z,5.43
2022-09-24T05:57:24.727Z,6.38
2022-09-24T06:03:27.275Z,5.50
2022-09-24T06:09:29.801Z,6.28
2022-09-24T06:15:32.538Z,4.68
2022-09-24T06:21:34.924Z,4.95
2022-09-24T06:27:37.344Z,4.80
2022-09-24T06:33:40.824Z,4.38
2022-09-24T06:39:43.252Z,5.28
2022-09-24T06:45:45.924Z,4.63
2022-09-24T06:51:48.407Z,4.57
2022-09-24T06:57:50.536Z,5.30
2022-09-24T07:03:52.717Z,3.33
2022-09-24T07:09:54.974Z,3.28
2022-09-24T07:15:57.167Z,2.47
2022-09-24T07:21:59.699Z,3.03
2022-09-24T07:28:10.781Z,2.88
2022-09-24T07:34:14.435Z,2.85
2022-09-24T07:40:16.750Z,2.60
2022-09-24T07:46:20.366Z,2.90
2022-09-24T07:52:22.848Z,2.60
2022-09-24T07:58:25.274Z,2.40
2022-09-24T08:04:27.350Z,3.15
2022-09-24T08:10:29.768Z,2.80
2022-09-24T08:16:31.996Z,5.28
2022-09-24T08:22:34.732Z,3.75
2022-09-24T08:28:37.004Z,3.22
2022-09-24T08:34:40.972Z,2.35
2022-09-24T08:40:55.059Z,2.92
2022-09-24T08:47:19.321Z,2.88
2022-09-24T08:53:40.580Z,2.40
2022-09-24T08:59:47.678Z,2.00
2022-09-24T09:05:59.424Z,2.38
2022-09-24T09:12:06.292Z,2.72
2022-09-24T09:18:18.613Z,2.40
2022-09-24T09:24:35.963Z,1.98
2022-09-24T09:31:08.574Z,2.20
2022-09-24T09:37:25.540Z,2.88
2022-09-24T09:43:28.172Z,2.70
2022-09-24T09:49:36.630Z,2.47
2022-09-24T09:55:38.838Z,1.75
2022-09-24T10:07:45.907Z,1.77
2022-09-24T10:14:01.504Z,2.33
2022-09-24T10:20:19.590Z,2.35
2022-09-24T10:26:21.952Z,1.90
2022-09-24T10:32:26.804Z,1.80
2022-09-24T10:38:29.875Z,1.85
2022-09-24T10:44:37.781Z,22.48
2022-09-24T10:50:59.143Z,1.50
2022-09-24T10:57:13.774Z,8.07
2022-09-24T11:03:45.809Z,1.70
2022-09-24T11:09:48.175Z,1.00
2022-09-24T11:16:12.349Z,1.42
2022-09-24T11:22:18.391Z,1.55
2022-09-24T11:28:41.467Z,1.23
2022-09-24T11:34:59.525Z,1.45
2022-09-24T11:41:21.830Z,1.65
2022-09-24T11:47:54.536Z,1.60
2022-09-24T11:54:19.776Z,1.55
2022-09-24T12:00:22.399Z,1.65
2022-09-24T12:06:38.165Z,1.67
2022-09-24T12:12:43.147Z,1.58
2022-09-24T12:18:55.842Z,1.58
2022-09-24T12:25:00.474Z,2.00
2022-09-24T12:31:30.531Z,2.67
2022-09-24T12:37:39.000Z,1.90
2022-09-24T12:43:47.458Z,1.92
2022-09-24T12:49:54.284Z,1.95
2022-09-24T12:56:00.749Z,1.70
2022-09-24T13:02:31.666Z,1.85
2022-09-24T13:08:41.721Z,2.00
2022-09-24T13:15:08.675Z,1.77
2022-09-24T13:21:24.778Z,2.05
2022-09-24T13:27:32.719Z,2.30
2022-09-24T13:33:44.065Z,1.70
2022-09-24T13:39:56.697Z,1.75
2022-09-24T13:45:59.827Z,1.85
2022-09-24T13:52:26.855Z,2.38
2022-09-24T13:58:36.211Z,2.10
2022-09-24T14:04:42.775Z,2.40
2022-09-24T14:10:48.739Z,2.20
2022-09-24T14:16:51.585Z,2.47
2022-09-24T14:22:54.162Z,2.22
2022-09-24T14:28:58.313Z,1.88
2022-09-24T14:35:05.882Z,2.17
2022-09-24T14:41:18.794Z,1.80
2022-09-24T14:53:37.786Z,2.30
2022-09-24T14:59:41.977Z,2.03
2022-09-24T15:05:46.476Z,1.90
2022-09-24T15:11:48.944Z,1.83
2022-09-24T15:17:51.072Z,1.83
2022-09-24T15:23:53.327Z,1.83
2022-09-24T15:29:59.847Z,2.67
2022-09-24T15:36:02.231Z,2.83
2022-09-24T15:42:05.070Z,1.85
2022-09-24T15:48:07.553Z,1.85
2022-09-24T15:54:09.994Z,2.28
2022-09-24T16:00:16.886Z,2.30
2022-09-24T16:06:19.407Z,1.98
2022-09-24T16:12:25.165Z,1.92
2022-09-24T16:18:27.527Z,2.90
2022-09-24T16:24:33.575Z,2.78
2022-09-24T16:30:38.580Z,36.55
2022-09-24T16:36:41.313Z,17.33
2022-09-24T16:42:43.440Z,8.65
2022-09-24T16:48:49.851Z,5.67
2022-09-24T16:54:51.995Z,4.65
2022-09-24T17:00:54.255Z,15.67
2022-09-24T17:06:57.523Z,49.20
2022-09-24T17:12:59.607Z,83.15
2022-09-24T17:19:02.190Z,43.03
2022-09-24T17:31:09.322Z,20.20
2022-09-24T17:37:11.728Z,22.45
2022-09-24T17:43:13.750Z,30.45
2022-09-24T17:49:15.994Z,19.70
2022-09-24T17:55:18.128Z,16.13
2022-09-24T18:01:23.348Z,17.67
2022-09-24T18:07:25.540Z,19.67
2022-09-24T18:13:27.533Z,16.63
2022-09-24T18:19:29.813Z,15.67
2022-09-24T18:25:32.504Z,17.52
2022-09-24T18:31:35.107Z,16.42
2022-09-24T18:37:37.861Z,13.20
2022-09-24T18:43:40.169Z,15.52
2022-09-24T18:49:42.550Z,14.80
2022-09-24T18:55:44.827Z,13.93
2022-09-24T19:01:48.144Z,13.27
2022-09-24T19:07:50.359Z,14.80
2022-09-24T19:13:54.209Z,14.20
2022-09-24T19:19:56.546Z,13.25
2022-09-24T19:26:05.491Z,12.57
2022-09-24T19:32:07.995Z,13.00
2022-09-24T19:38:10.042Z,14.23
2022-09-24T19:44:12.656Z,13.93
2022-09-24T19:50:17.585Z,14.40
2022-09-24T19:56:22.642Z,12.85
2022-09-24T20:02:24.680Z,14.30
2022-09-24T20:08:26.810Z,14.70
2022-09-24T20:14:32.869Z,14.57
2022-09-24T20:20:35.899Z,13.80
2022-09-24T20:26:56.785Z,13.98
2022-09-24T20:32:59.441Z,13.80
2022-09-24T20:39:01.590Z,12.50
2022-09-24T20:45:06.230Z,15.77
2022-09-24T20:51:16.242Z,15.38
2022-09-24T20:57:18.271Z,15.35
2022-09-24T21:03:42.783Z,15.40
2022-09-24T21:09:45.767Z,15.80
2022-09-24T21:16:02.059Z,16.53
2022-09-24T21:22:04.252Z,15.20
2022-09-24T21:28:06.455Z,13.80
2022-09-24T21:34:08.762Z,15.03
2022-09-24T21:40:11.206Z,16.02
2022-09-24T21:46:14.098Z,15.63
2022-09-24T21:58:18.550Z,13.73
2022-09-24T22:04:20.950Z,15.30
2022-09-24T22:10:24.158Z,15.27
2022-09-24T22:16:27.098Z,17.25
2022-09-24T22:22:29.227Z,17.15
2022-09-24T22:28:31.849Z,15.75
2022-09-24T22:34:52.738Z,16.40
2022-09-24T22:40:55.143Z,15.32
2022-09-24T22:46:57.498Z,16.17
2022-09-24T22:53:00.118Z,15.57
2022-09-24T22:59:02.563Z,15.02
2022-09-24T23:05:05.644Z,15.45
2022-09-24T23:11:19.443Z,16.00
2022-09-24T23:17:21.681Z,15.68
2022-09-24T23:23:24.058Z,17.33
2022-09-24T23:29:26.487Z,16.35
2022-09-24T23:35:29.015Z,15.48
2022-09-24T23:41:32.091Z,14.70
2022-09-24T23:47:36.265Z,16.65
2022-09-24T23:53:39.222Z,16.95
2022-09-24T23:59:41.442Z,17.63
